createdAt,value
2023-10-20T00:00:47.912Z,77.29
2023-10-20T00:03:50.994Z,77.44
2023-10-20T00:06:52.708Z,77.19
2023-10-20T00:09:54.379Z,78.28
2023-10-20T00:12:56.052Z,78.37
2023-10-20T00:15:57.882Z,78.64
2023-10-20T00:19:00.972Z,79.14
2023-10-20T00:22:02.675Z,79.07
2023-10-20T00:25:04.898Z,79.06
2023-10-20T00:28:06.838Z,79.69
2023-10-20T00:31:08.561Z,79.90
2023-10-20T00:34:11.650Z,79.89
2023-10-20T00:37:13.360Z,79.82
2023-10-20T00:40:15.576Z,79.73
2023-10-20T00:43:17.371Z,79.73
2023-10-20T00:46:19.642Z,79.94
2023-10-20T00:49:22.989Z,80.30
2023-10-20T00:52:24.647Z,79.70
2023-10-20T00:55:26.452Z,79.60
2023-10-20T00:58:29.644Z,79.65
2023-10-20T01:01:32.184Z,79.80
2023-10-20T01:04:35.404Z,80.73
2023-10-20T01:07:37.133Z,81.08
2023-10-20T01:10:38.792Z,80.94
2023-10-20T01:13:40.489Z,80.98
2023-10-20T01:16:42.211Z,80.85
2023-10-20T01:19:45.317Z,80.66
2023-10-20T01:22:47.016Z,80.35
2023-10-20T01:25:50.127Z,80.51
2023-10-20T01:28:51.823Z,80.30
2023-10-20T01:31:53.514Z,80.21
2023-10-20T01:34:55.189Z,79.68
2023-10-20T01:37:56.912Z,79.51
2023-10-20T01:41:00.015Z,79.29
2023-10-20T01:44:01.795Z,79.51
2023-10-20T01:47:03.625Z,79.46
2023-10-20T01:50:06.139Z,79.45
2023-10-20T01:53:07.980Z,78.83
2023-10-20T01:56:11.164Z,79.25
2023-10-20T01:59:12.894Z,79.21
2023-10-20T02:02:14.660Z,79.08
2023-10-20T02:05:16.649Z,78.99
2023-10-20T02:08:18.519Z,78.85
2023-10-20T02:11:21.670Z,79.09
2023-10-20T02:14:23.387Z,79.03
2023-10-20T02:17:25.269Z,79.12
2023-10-20T02:20:27.011Z,79.42
2023-10-20T02:23:28.717Z,79.13
2023-10-20T02:26:31.877Z,79.05
2023-10-20T02:29:33.685Z,78.83
2023-10-20T02:32:35.482Z,79.54
2023-10-20T02:35:41.053Z,79.76
2023-10-20T02:38:42.810Z,80.04
2023-10-20T02:41:45.905Z,80.08
2023-10-20T02:44:47.569Z,80.20
2023-10-20T02:47:51.634Z,80.20
2023-10-20T02:50:53.528Z,80.57
2023-10-20T02:53:55.237Z,80.33
2023-10-20T02:56:58.304Z,80.46
2023-10-20T03:00:00.022Z,80.06
2023-10-20T03:03:01.783Z,80.25
2023-10-20T03:06:04.925Z,79.94
2023-10-20T03:09:06.579Z,80.56
2023-10-20T03:12:09.608Z,80.79
2023-10-20T03:15:11.497Z,80.71
2023-10-20T03:18:13.188Z,81.44
2023-10-20T03:21:14.898Z,80.97
2023-10-20T03:24:16.596Z,81.02
2023-10-20T03:27:19.770Z,80.98
2023-10-20T03:30:21.493Z,80.71
2023-10-20T03:33:23.293Z,80.47
2023-10-20T03:36:25.103Z,80.60
2023-10-20T03:39:26.783Z,80.19
2023-10-20T03:42:29.821Z,80.47
2023-10-20T03:45:31.570Z,79.76
2023-10-20T03:48:33.502Z,79.21
2023-10-20T03:51:35.153Z,79.16
2023-10-20T03:54:36.864Z,79.14
2023-10-20T03:57:39.982Z,78.24
2023-10-20T04:00:41.687Z,77.50
2023-10-20T04:03:43.449Z,77.57
2023-10-20T04:06:45.371Z,77.02
2023-10-20T04:09:47.103Z,76.64
2023-10-20T04:12:50.203Z,76.51
2023-10-20T04:15:52.132Z,75.87
2023-10-20T04:18:53.816Z,76.01
2023-10-20T04:21:55.503Z,76.51
2023-10-20T04:24:57.202Z,76.17
2023-10-20T04:28:00.575Z,75.98
2023-10-20T04:31:02.069Z,75.60
2023-10-20T04:34:03.793Z,76.16
2023-10-20T04:37:07.188Z,76.00
2023-10-20T04:40:11.628Z,76.18
2023-10-20T04:43:14.872Z,76.51
2023-10-20T04:46:16.539Z,75.92
2023-10-20T04:49:18.248Z,76.25
2023-10-20T04:52:19.987Z,75.73
2023-10-20T04:55:21.738Z,76.11
2023-10-20T04:58:24.786Z,75.99
2023-10-20T05:01:26.523Z,75.18
2023-10-20T05:04:28.847Z,74.90
2023-10-20T05:07:30.522Z,74.76
2023-10-20T05:10:33.044Z,74.18
2023-10-20T05:13:36.205Z,74.46
2023-10-20T05:16:37.920Z,74.51
2023-10-20T05:19:40.333Z,74.33
2023-10-20T05:22:42.295Z,74.26
2023-10-20T05:25:47.659Z,74.01
2023-10-20T05:28:50.697Z,74.14
2023-10-20T05:31:52.388Z,74.13
2023-10-20T05:34:54.077Z,74.00
2023-10-20T05:37:55.792Z,74.24
2023-10-20T05:40:58.373Z,74.10
2023-10-20T05:44:01.445Z,74.51
2023-10-20T05:47:03.138Z,74.12
2023-10-20T05:50:05.792Z,73.85
2023-10-20T05:53:07.697Z,74.40
2023-10-20T05:56:11.440Z,74.17
2023-10-20T05:59:14.820Z,74.15
2023-10-20T06:02:16.574Z,74.61
2023-10-20T06:05:18.307Z,73.81
2023-10-20T06:08:20.057Z,74.42
2023-10-20T06:11:21.816Z,74.44
2023-10-20T06:14:24.946Z,74.16
2023-10-20T06:17:26.846Z,74.03
2023-10-20T06:20:28.632Z,74.50
2023-10-20T06:23:30.361Z,74.72
2023-10-20T06:26:32.098Z,74.22
2023-10-20T06:29:35.340Z,73.77
2023-10-20T06:32:37.037Z,74.00
2023-10-20T06:35:38.834Z,73.64
2023-10-20T06:38:40.580Z,73.74
2023-10-20T06:41:42.554Z,73.10
2023-10-20T06:44:45.685Z,72.53
2023-10-20T06:47:47.510Z,72.46
2023-10-20T06:50:49.447Z,71.88
2023-10-20T06:53:52.774Z,71.94
2023-10-20T06:56:56.521Z,71.71
2023-10-20T06:59:59.562Z,71.91
2023-10-20T07:03:01.360Z,71.82
2023-10-20T07:06:03.532Z,71.38
2023-10-20T07:09:05.470Z,71.26
2023-10-20T07:12:08.903Z,71.20
2023-10-20T07:15:13.512Z,70.98
2023-10-20T07:18:15.309Z,70.52
2023-10-20T07:21:17.017Z,70.45
2023-10-20T07:24:18.701Z,70.38
2023-10-20T07:27:20.424Z,69.59
2023-10-20T07:30:23.639Z,69.38
2023-10-20T07:33:25.369Z,68.58
2023-10-20T07:36:27.049Z,68.13
2023-10-20T07:39:28.742Z,67.78
2023-10-20T07:42:30.448Z,67.61
2023-10-20T07:45:38.441Z,67.09
2023-10-20T07:48:40.378Z,67.08
2023-10-20T07:51:42.110Z,66.25
2023-10-20T07:54:43.769Z,65.62
2023-10-20T07:57:45.432Z,65.52
2023-10-20T08:00:48.442Z,64.76
2023-10-20T08:03:50.484Z,64.96
2023-10-20T08:06:52.455Z,63.98
2023-10-20T08:09:54.355Z,64.15
2023-10-20T08:12:56.101Z,64.01
2023-10-20T08:16:02.206Z,63.69
2023-10-20T08:19:04.175Z,63.43
2023-10-20T08:22:05.832Z,63.52
2023-10-20T08:25:08.765Z,63.50
2023-10-20T08:28:10.448Z,62.82
2023-10-20T08:31:13.622Z,63.15
2023-10-20T08:34:15.303Z,63.19
2023-10-20T08:37:17.177Z,63.23
2023-10-20T08:40:19.027Z,62.84
2023-10-20T08:43:20.977Z,62.45
2023-10-20T08:46:24.168Z,62.44
2023-10-20T08:49:26.347Z,61.50
2023-10-20T08:52:28.712Z,61.95
2023-10-20T08:55:30.359Z,61.20
2023-10-20T08:58:32.499Z,61.94
2023-10-20T09:01:36.355Z,62.17
2023-10-20T09:04:38.162Z,62.25
2023-10-20T09:07:39.960Z,62.09
2023-10-20T09:10:43.558Z,61.98
2023-10-20T09:13:47.713Z,62.11
2023-10-20T09:16:51.364Z,61.84
2023-10-20T09:19:53.021Z,61.33
2023-10-20T09:22:54.762Z,60.76
2023-10-20T09:25:56.417Z,60.92
2023-10-20T09:29:01.625Z,60.90
2023-10-20T09:32:05.065Z,59.94
2023-10-20T09:35:07.719Z,59.04
2023-10-20T09:38:11.375Z,59.95
2023-10-20T09:41:14.517Z,58.89
2023-10-20T09:44:22.325Z,57.88
2023-10-20T09:47:29.520Z,57.72
2023-10-20T09:50:33.078Z,56.14
2023-10-20T09:53:34.902Z,55.83
2023-10-20T09:56:37.105Z,55.53
2023-10-20T09:59:39.785Z,54.28
2023-10-20T10:02:42.994Z,54.42
2023-10-20T10:05:46.955Z,53.50
2023-10-20T10:08:49.041Z,52.26
2023-10-20T10:11:55.715Z,51.53
2023-10-20T10:14:58.591Z,50.49
2023-10-20T10:18:09.100Z,50.38
2023-10-20T10:21:10.896Z,50.13
2023-10-20T10:24:14.274Z,50.15
2023-10-20T10:27:16.533Z,50.03
2023-10-20T10:30:27.401Z,49.80
2023-10-20T10:33:30.543Z,48.78
2023-10-20T10:36:42.927Z,49.39
2023-10-20T10:39:44.667Z,48.81
2023-10-20T10:42:47.799Z,48.28
2023-10-20T10:45:53.767Z,48.95
2023-10-20T10:49:07.593Z,47.83
2023-10-20T10:52:09.294Z,48.33
2023-10-20T10:55:11.000Z,47.30
2023-10-20T10:58:13.838Z,47.78
2023-10-20T11:01:15.658Z,48.01
2023-10-20T11:04:19.314Z,47.76
2023-10-20T11:07:21.360Z,47.81
2023-10-20T11:10:25.425Z,46.14
2023-10-20T11:13:28.527Z,45.36
2023-10-20T11:16:30.112Z,45.04
2023-10-20T11:19:33.528Z,44.93
2023-10-20T11:22:38.239Z,44.94
2023-10-20T11:25:40.482Z,44.80
2023-10-20T11:28:42.173Z,44.29
2023-10-20T11:31:43.847Z,43.69
2023-10-20T11:34:46.953Z,43.47
2023-10-20T11:37:49.013Z,44.17
2023-10-20T11:40:51.050Z,44.02
2023-10-20T11:43:52.977Z,44.28
2023-10-20T11:46:55.075Z,44.59
2023-10-20T11:49:58.068Z,43.48
2023-10-20T11:52:59.549Z,43.70
2023-10-20T11:56:01.236Z,42.78
2023-10-20T11:59:02.904Z,42.96
2023-10-20T12:02:04.594Z,43.61
2023-10-20T12:05:08.755Z,43.78
2023-10-20T12:08:10.470Z,44.45
2023-10-20T12:11:12.233Z,44.29
2023-10-20T12:14:13.924Z,44.52
2023-10-20T12:17:15.775Z,44.40
2023-10-20T12:20:18.940Z,43.83
2023-10-20T12:23:20.665Z,44.19
2023-10-20T12:26:22.441Z,44.30
2023-10-20T12:29:24.278Z,44.00
2023-10-20T12:32:26.093Z,44.17
2023-10-20T12:35:29.347Z,44.26
2023-10-20T12:38:32.074Z,44.75
2023-10-20T12:41:33.951Z,44.40
2023-10-20T12:44:36.226Z,44.93
2023-10-20T12:47:38.390Z,45.25
2023-10-20T12:50:41.559Z,45.24
2023-10-20T12:53:43.352Z,45.64
2023-10-20T12:56:45.117Z,45.78
2023-10-20T12:59:46.928Z,46.03
2023-10-20T13:02:48.727Z,45.96
2023-10-20T13:05:51.949Z,46.24
2023-10-20T13:08:53.706Z,46.55
2023-10-20T13:11:55.589Z,46.25
2023-10-20T13:14:57.308Z,46.02
2023-10-20T13:17:59.212Z,46.36
2023-10-20T13:21:04.531Z,46.07
2023-10-20T13:24:07.026Z,46.59
2023-10-20T13:27:08.709Z,46.76
2023-10-20T13:30:11.007Z,47.02
2023-10-20T13:33:12.798Z,46.86
2023-10-20T13:36:18.229Z,47.23
2023-10-20T13:42:32.405Z,46.98
2023-10-20T13:45:34.093Z,47.28
2023-10-20T13:48:35.875Z,47.03
2023-10-20T13:51:38.968Z,47.05
2023-10-20T13:54:40.474Z,47.50
2023-10-20T13:57:42.158Z,47.62
2023-10-20T14:00:44.001Z,47.51
2023-10-20T14:03:45.997Z,48.19
2023-10-20T14:06:49.170Z,48.65
2023-10-20T14:09:50.694Z,48.22
2023-10-20T14:12:52.343Z,48.63
2023-10-20T14:15:54.059Z,48.66
2023-10-20T14:18:55.773Z,49.02
2023-10-20T14:21:58.897Z,49.28
2023-10-20T14:25:00.566Z,49.02
2023-10-20T14:28:02.259Z,49.45
2023-10-20T14:31:05.106Z,49.11
2023-10-20T14:34:06.800Z,48.68
2023-10-20T14:37:09.868Z,48.70
2023-10-20T14:40:11.894Z,48.63
2023-10-20T14:43:13.680Z,48.95
2023-10-20T14:46:15.387Z,48.46
2023-10-20T14:49:17.121Z,48.76
2023-10-20T14:52:20.246Z,48.96
2023-10-20T14:55:21.747Z,48.55
2023-10-20T14:58:23.400Z,48.43
2023-10-20T15:01:25.135Z,48.23
2023-10-20T15:04:30.821Z,48.17
2023-10-20T15:07:34.291Z,47.78
2023-10-20T15:10:36.133Z,48.16
2023-10-20T15:13:37.797Z,47.48
2023-10-20T15:16:39.528Z,47.80
2023-10-20T15:19:41.278Z,47.85
2023-10-20T15:22:44.344Z,47.80
2023-10-20T15:25:46.405Z,47.85
2023-10-20T15:28:48.268Z,47.59
2023-10-20T15:31:50.062Z,47.72
2023-10-20T15:34:51.865Z,46.86
2023-10-20T15:37:54.905Z,47.80
2023-10-20T15:40:57.757Z,47.70
2023-10-20T15:43:59.436Z,47.30
2023-10-20T15:47:01.137Z,46.84
2023-10-20T15:50:02.878Z,47.03
2023-10-20T15:53:05.973Z,47.05
2023-10-20T15:56:07.465Z,46.95
2023-10-20T15:59:09.189Z,46.69
2023-10-20T16:02:10.881Z,46.70
2023-10-20T16:05:12.658Z,46.71
2023-10-20T16:08:15.655Z,46.55
2023-10-20T16:11:17.363Z,46.42
2023-10-20T16:14:19.122Z,46.64
2023-10-20T16:17:20.783Z,45.90
2023-10-20T16:20:22.794Z,46.03
2023-10-20T16:23:25.896Z,46.01
2023-10-20T16:26:27.444Z,46.02
2023-10-20T16:29:29.169Z,45.56
2023-10-20T16:32:31.266Z,45.94
2023-10-20T16:35:33.127Z,46.25
2023-10-20T16:38:36.573Z,46.55
2023-10-20T16:41:38.560Z,46.56
2023-10-20T16:44:40.640Z,46.04
2023-10-20T16:47:42.537Z,46.39
2023-10-20T16:50:44.836Z,46.23
2023-10-20T16:53:48.413Z,46.55
2023-10-20T16:56:52.576Z,46.33
2023-10-20T16:59:54.396Z,47.00
2023-10-20T17:02:56.331Z,46.50
2023-10-20T17:05:58.710Z,46.56
2023-10-20T17:09:02.385Z,46.31
2023-10-20T17:12:05.592Z,46.65
2023-10-20T17:15:07.990Z,46.83
2023-10-20T17:18:10.257Z,46.63
2023-10-20T17:21:12.527Z,46.65
2023-10-20T17:24:16.204Z,46.51
2023-10-20T17:27:19.012Z,47.04
2023-10-20T17:30:20.854Z,46.79
2023-10-20T17:33:23.110Z,46.80
2023-10-20T17:36:25.932Z,46.78
2023-10-20T17:39:29.770Z,46.92
2023-10-20T17:42:32.148Z,47.14
2023-10-20T17:45:38.733Z,46.91
2023-10-20T17:48:41.558Z,47.33
2023-10-20T17:51:43.541Z,46.86
2023-10-20T17:54:47.345Z,47.02
2023-10-20T17:57:50.050Z,46.96
2023-10-20T18:00:52.303Z,47.56
2023-10-20T18:03:54.408Z,47.79
2023-10-20T18:06:56.686Z,47.83
2023-10-20T18:10:00.751Z,47.90
2023-10-20T18:13:03.690Z,48.16
2023-10-20T18:16:05.465Z,48.15
2023-10-20T18:19:08.150Z,48.23
2023-10-20T18:22:11.032Z,48.85
2023-10-20T18:25:16.768Z,48.55
2023-10-20T18:28:19.922Z,48.22
2023-10-20T18:31:22.258Z,49.02
2023-10-20T18:34:24.123Z,49.64
2023-10-20T18:37:28.040Z,49.40
2023-10-20T18:40:35.029Z,50.06
2023-10-20T18:43:39.023Z,50.16
2023-10-20T18:46:42.216Z,50.51
2023-10-20T18:49:45.456Z,51.28
2023-10-20T18:52:47.922Z,51.04
2023-10-20T18:55:52.411Z,51.19
2023-10-20T18:58:55.375Z,50.83
2023-10-20T19:02:00.889Z,51.17
2023-10-20T19:05:04.379Z,51.21
2023-10-20T19:08:10.742Z,51.49
2023-10-20T19:11:15.390Z,51.39
2023-10-20T19:14:20.232Z,51.21
2023-10-20T19:17:23.498Z,51.08
2023-10-20T19:20:26.847Z,50.85
2023-10-20T19:23:30.503Z,51.48
2023-10-20T19:26:37.731Z,50.63
2023-10-20T19:29:40.737Z,51.05
2023-10-20T19:32:42.572Z,50.32
2023-10-20T19:35:44.602Z,50.52
2023-10-20T19:38:47.530Z,50.71
2023-10-20T19:41:52.085Z,51.13
2023-10-20T19:44:56.672Z,51.04
2023-10-20T19:48:00.421Z,51.66
2023-10-20T19:51:02.941Z,51.83
2023-10-20T19:54:08.627Z,51.68
2023-10-20T19:57:13.420Z,51.76
2023-10-20T20:00:16.107Z,51.76
2023-10-20T20:03:18.575Z,51.98
2023-10-20T20:06:20.956Z,51.86
2023-10-20T20:09:23.522Z,52.12
2023-10-20T20:12:27.135Z,51.74
2023-10-20T20:15:28.880Z,51.83
2023-10-20T20:18:32.557Z,51.98
2023-10-20T20:21:34.333Z,52.13
2023-10-20T20:24:36.460Z,51.74
2023-10-20T20:27:40.060Z,52.08
2023-10-20T20:30:42.066Z,52.10
2023-10-20T20:33:43.843Z,51.91
2023-10-20T20:36:45.794Z,52.26
2023-10-20T20:39:47.498Z,52.35
2023-10-20T20:42:50.670Z,52.87
2023-10-20T20:45:52.692Z,52.93
2023-10-20T20:48:54.501Z,53.70
2023-10-20T20:51:56.222Z,53.36
2023-10-20T20:54:57.947Z,53.99
2023-10-20T20:58:01.029Z,53.81
2023-10-20T21:01:08.733Z,53.55
2023-10-20T21:04:10.850Z,53.12
2023-10-20T21:07:12.657Z,53.06
2023-10-20T21:10:14.451Z,52.53
2023-10-20T21:13:17.517Z,52.56
2023-10-20T21:16:19.213Z,52.11
2023-10-20T21:19:20.922Z,52.15
2023-10-20T21:22:22.715Z,52.54
2023-10-20T21:25:24.423Z,52.46
2023-10-20T21:28:27.504Z,51.50
2023-10-20T21:31:29.086Z,51.28
2023-10-20T21:34:30.764Z,51.17
2023-10-20T21:37:32.459Z,50.80
2023-10-20T21:40:34.192Z,50.87
2023-10-20T21:43:37.303Z,50.03
2023-10-20T21:46:38.946Z,49.40
2023-10-20T21:49:40.690Z,49.69
2023-10-20T21:52:42.928Z,49.11
2023-10-20T21:55:44.578Z,49.34
2023-10-20T21:58:47.669Z,49.43
2023-10-20T22:02:08.290Z,48.81
2023-10-20T22:05:11.164Z,48.68
2023-10-20T22:08:12.834Z,48.36
2023-10-20T22:11:14.532Z,47.73
2023-10-20T22:14:17.594Z,47.91
2023-10-20T22:17:19.281Z,47.97
2023-10-20T22:20:20.950Z,47.78
2023-10-20T22:23:22.671Z,48.05
2023-10-20T22:26:24.375Z,48.03
2023-10-20T22:29:27.418Z,48.40
2023-10-20T22:32:29.164Z,47.97
2023-10-20T22:35:30.859Z,48.13
2023-10-20T22:38:32.724Z,48.46
2023-10-20T22:41:34.504Z,48.59
2023-10-20T22:44:37.616Z,48.27
2023-10-20T22:47:39.174Z,48.50
2023-10-20T22:50:42.494Z,48.50
2023-10-20T22:53:44.203Z,48.82
2023-10-20T22:56:45.975Z,48.56
2023-10-20T22:59:49.136Z,48.89
2023-10-20T23:02:50.741Z,48.66
2023-10-20T23:05:52.562Z,48.36
2023-10-20T23:08:54.327Z,49.08
2023-10-20T23:11:56.090Z,49.25
2023-10-20T23:14:59.399Z,49.38
2023-10-20T23:18:01.252Z,48.95
2023-10-20T23:21:03.137Z,49.07
2023-10-20T23:24:05.561Z,48.95
2023-10-20T23:27:07.391Z,49.53
2023-10-20T23:30:11.984Z,48.78
2023-10-20T23:33:14.024Z,48.97
2023-10-20T23:36:15.795Z,48.64
2023-10-20T23:39:17.516Z,48.17
2023-10-20T23:42:19.229Z,48.08
2023-10-20T23:45:22.428Z,48.37
2023-10-20T23:48:24.035Z,48.14
2023-10-20T23:51:25.772Z,48.13
2023-10-20T23:54:27.442Z,48.05
2023-10-20T23:57:29.074Z,47.55
